sensor_id;sensor_type;location;lat;lon;timestamp;temperature;humidity
34201;DHT22;20469;55.638;37.670;2022-12-18T00:03:56;-3.50;99.90
34201;DHT22;20469;55.638;37.670;2022-12-18T00:06:25;-3.70;99.90
34201;DHT22;20469;55.638;37.670;2022-12-18T00:08:54;-3.70;99.90
34201;DHT22;20469;55.638;37.670;2022-12-18T00:11:25;-3.50;99.90
34201;DHT22;20469;55.638;37.670;2022-12-18T00:13:54;-3.60;99.90
34201;DHT22;20469;55.638;37.670;2022-12-18T00:16:23;-3.60;99.90
34201;DHT22;20469;55.638;37.670;2022-12-18T00:18:53;-3.60;99.90
34201;DHT22;20469;55.638;37.670;2022-12-18T00:21:21;-3.50;99.90
34201;DHT22;20469;55.638;37.670;2022-12-18T00:23:49;-3.50;99.90
34201;DHT22;20469;55.638;37.670;2022-12-18T00:26:21;-3.60;99.90
34201;DHT22;20469;55.638;37.670;2022-12-18T00:28:49;-3.70;99.90
34201;DHT22;20469;55.638;37.670;2022-12-18T00:31:19;-3.60;99.90
34201;DHT22;20469;55.638;37.670;2022-12-18T00:33:47;-3.50;99.90
34201;DHT22;20469;55.638;37.670;2022-12-18T00:36:22;-4.80;99.90
34201;DHT22;20469;55.638;37.670;2022-12-18T00:38:51;-3.60;99.90
34201;DHT22;20469;55.638;37.670;2022-12-18T00:41:18;-3.60;99.90
34201;DHT22;20469;55.638;37.670;2022-12-18T00:44:05;-3.60;99.90
34201;DHT22;20469;55.638;37.670;2022-12-18T00:46:33;-3.70;99.90
34201;DHT22;20469;55.638;37.670;2022-12-18T00:49:00;-3.80;99.90
34201;DHT22;20469;55.638;37.670;2022-12-18T00:53:55;-3.70;99.90
34201;DHT22;20469;55.638;37.670;2022-12-18T00:56:23;-3.70;99.90
34201;DHT22;20469;55.638;37.670;2022-12-18T00:58:50;-3.70;99.90
34201;DHT22;20469;55.638;37.670;2022-12-18T01:01:18;-3.70;99.90
34201;DHT22;20469;55.638;37.670;2022-12-18T01:03:45;-3.80;99.90
34201;DHT22;20469;55.638;37.670;2022-12-18T01:06:14;-3.80;99.90
34201;DHT22;20469;55.638;37.670;2022-12-18T01:08:42;-3.90;99.90
34201;DHT22;20469;55.638;37.670;2022-12-18T01:11:17;-3.20;99.90
34201;DHT22;20469;55.638;37.670;2022-12-18T01:16:13;-3.70;99.90
34201;DHT22;20469;55.638;37.670;2022-12-18T01:18:40;-3.80;99.90
34201;DHT22;20469;55.638;37.670;2022-12-18T01:21:09;-3.70;99.90
34201;DHT22;20469;55.638;37.670;2022-12-18T01:23:36;-3.70;99.90
34201;DHT22;20469;55.638;37.670;2022-12-18T01:26:13;-3.80;99.90
34201;DHT22;20469;55.638;37.670;2022-12-18T01:28:43;-3.80;99.90
34201;DHT22;20469;55.638;37.670;2022-12-18T01:31:24;-3.80;99.90
34201;DHT22;20469;55.638;37.670;2022-12-18T01:33:53;-3.90;99.90
34201;DHT22;20469;55.638;37.670;2022-12-18T01:36:24;-3.80;99.90
34201;DHT22;20469;55.638;37.670;2022-12-18T01:38:52;-3.80;99.90
34201;DHT22;20469;55.638;37.670;2022-12-18T01:41:23;-3.90;99.90
34201;DHT22;20469;55.638;37.670;2022-12-18T01:43:56;-3.90;99.90
34201;DHT22;20469;55.638;37.670;2022-12-18T01:46:27;-3.90;99.90
34201;DHT22;20469;55.638;37.670;2022-12-18T01:48:57;-3.80;99.90
34201;DHT22;20469;55.638;37.670;2022-12-18T01:51:26;-3.80;99.90
34201;DHT22;20469;55.638;37.670;2022-12-18T01:53:53;-3.70;99.90
34201;DHT22;20469;55.638;37.670;2022-12-18T01:56:21;-3.80;99.90
34201;DHT22;20469;55.638;37.670;2022-12-18T02:01:21;-3.80;99.90
34201;DHT22;20469;55.638;37.670;2022-12-18T02:03:49;-3.90;99.90
34201;DHT22;20469;55.638;37.670;2022-12-18T02:06:39;-3.80;99.90
34201;DHT22;20469;55.638;37.670;2022-12-18T02:09:18;-3.80;99.90
34201;DHT22;20469;55.638;37.670;2022-12-18T02:17:23;-3.90;99.90
34201;DHT22;20469;55.638;37.670;2022-12-18T02:23:09;-3.80;99.90
34201;DHT22;20469;55.638;37.670;2022-12-18T02:28:28;-3.80;99.90
34201;DHT22;20469;55.638;37.670;2022-12-18T02:31:01;-3.70;99.90
34201;DHT22;20469;55.638;37.670;2022-12-18T02:33:30;-3.80;99.90
34201;DHT22;20469;55.638;37.670;2022-12-18T02:36:00;-3.90;99.90
34201;DHT22;20469;55.638;37.670;2022-12-18T02:38:29;-2.40;99.90
34201;DHT22;20469;55.638;37.670;2022-12-18T02:40:57;-4.00;99.90
34201;DHT22;20469;55.638;37.670;2022-12-18T02:43:25;-3.80;99.90
34201;DHT22;20469;55.638;37.670;2022-12-18T02:45:56;-3.90;99.90
34201;DHT22;20469;55.638;37.670;2022-12-18T02:48:29;-4.00;99.90
34201;DHT22;20469;55.638;37.670;2022-12-18T02:51:17;-3.80;99.90
34201;DHT22;20469;55.638;37.670;2022-12-18T02:54:23;-3.90;99.90
34201;DHT22;20469;55.638;37.670;2022-12-18T02:56:58;-3.90;99.90
34201;DHT22;20469;55.638;37.670;2022-12-18T02:59:41;-2.10;99.90
34201;DHT22;20469;55.638;37.670;2022-12-18T03:02:26;-3.80;99.90
34201;DHT22;20469;55.638;37.670;2022-12-18T03:05:13;-3.80;99.90
34201;DHT22;20469;55.638;37.670;2022-12-18T03:07:51;-3.80;99.90
34201;DHT22;20469;55.638;37.670;2022-12-18T03:10:26;-3.80;99.90
34201;DHT22;20469;55.638;37.670;2022-12-18T03:13:05;-3.80;99.90
34201;DHT22;20469;55.638;37.670;2022-12-18T03:15:41;-3.90;99.90
34201;DHT22;20469;55.638;37.670;2022-12-18T03:18:15;-3.90;99.90
34201;DHT22;20469;55.638;37.670;2022-12-18T03:20:44;-4.00;99.90
34201;DHT22;20469;55.638;37.670;2022-12-18T03:23:19;-4.10;99.90
34201;DHT22;20469;55.638;37.670;2022-12-18T03:25:56;-4.00;99.90
34201;DHT22;20469;55.638;37.670;2022-12-18T03:28:33;-4.10;99.90
34201;DHT22;20469;55.638;37.670;2022-12-18T03:31:04;-4.00;99.90
34201;DHT22;20469;55.638;37.670;2022-12-18T03:33:43;-3.90;99.90
34201;DHT22;20469;55.638;37.670;2022-12-18T03:36:13;-3.90;99.90
34201;DHT22;20469;55.638;37.670;2022-12-18T03:38:41;-4.00;99.90
34201;DHT22;20469;55.638;37.670;2022-12-18T03:44:29;-4.10;99.90
34201;DHT22;20469;55.638;37.670;2022-12-18T03:49:39;-4.10;99.90
34201;DHT22;20469;55.638;37.670;2022-12-18T03:52:16;-4.10;99.90
34201;DHT22;20469;55.638;37.670;2022-12-18T03:54:45;-4.10;99.90
34201;DHT22;20469;55.638;37.670;2022-12-18T03:57:19;-4.30;99.90
34201;DHT22;20469;55.638;37.670;2022-12-18T03:59:51;-4.30;99.90
34201;DHT22;20469;55.638;37.670;2022-12-18T04:02:20;-4.10;99.90
34201;DHT22;20469;55.638;37.670;2022-12-18T04:04:56;-4.20;99.90
34201;DHT22;20469;55.638;37.670;2022-12-18T04:07:24;-4.20;99.90
34201;DHT22;20469;55.638;37.670;2022-12-18T04:09:54;-4.30;99.90
34201;DHT22;20469;55.638;37.670;2022-12-18T04:12:28;-4.20;99.90
34201;DHT22;20469;55.638;37.670;2022-12-18T04:14:55;-4.20;99.90
34201;DHT22;20469;55.638;37.670;2022-12-18T04:17:22;-4.20;99.90
34201;DHT22;20469;55.638;37.670;2022-12-18T04:22:18;-4.30;99.90
34201;DHT22;20469;55.638;37.670;2022-12-18T04:24:46;-4.30;99.90
34201;DHT22;20469;55.638;37.670;2022-12-18T04:27:13;-4.40;99.90
34201;DHT22;20469;55.638;37.670;2022-12-18T04:29:40;-4.40;99.90
34201;DHT22;20469;55.638;37.670;2022-12-18T04:32:08;-4.40;99.90
34201;DHT22;20469;55.638;37.670;2022-12-18T04:37:03;-4.40;99.90
34201;DHT22;20469;55.638;37.670;2022-12-18T04:39:31;-4.30;99.90
34201;DHT22;20469;55.638;37.670;2022-12-18T04:41:59;-4.50;99.90
34201;DHT22;20469;55.638;37.670;2022-12-18T04:44:27;-4.40;99.90
34201;DHT22;20469;55.638;37.670;2022-12-18T04:46:55;-4.40;99.90
34201;DHT22;20469;55.638;37.670;2022-12-18T04:49:22;-4.40;99.90
34201;DHT22;20469;55.638;37.670;2022-12-18T04:51:50;-4.40;99.90
34201;DHT22;20469;55.638;37.670;2022-12-18T04:54:17;-4.30;99.90
34201;DHT22;20469;55.638;37.670;2022-12-18T04:56:46;-4.50;99.90
34201;DHT22;20469;55.638;37.670;2022-12-18T04:59:14;-4.50;99.90
34201;DHT22;20469;55.638;37.670;2022-12-18T05:01:41;-4.40;99.90
34201;DHT22;20469;55.638;37.670;2022-12-18T05:04:08;-4.30;99.90
34201;DHT22;20469;55.638;37.670;2022-12-18T05:06:36;-4.40;99.90
34201;DHT22;20469;55.638;37.670;2022-12-18T05:09:03;-4.40;99.90
34201;DHT22;20469;55.638;37.670;2022-12-18T05:11:31;-4.50;99.90
34201;DHT22;20469;55.638;37.670;2022-12-18T05:13:59;-4.30;99.90
34201;DHT22;20469;55.638;37.670;2022-12-18T05:18:54;-4.40;99.90
34201;DHT22;20469;55.638;37.670;2022-12-18T05:21:21;-4.40;99.90
34201;DHT22;20469;55.638;37.670;2022-12-18T05:23:48;-4.30;99.90
34201;DHT22;20469;55.638;37.670;2022-12-18T05:26:17;-4.40;99.90
34201;DHT22;20469;55.638;37.670;2022-12-18T05:28:44;-4.40;99.90
34201;DHT22;20469;55.638;37.670;2022-12-18T05:31:13;-4.50;99.90
34201;DHT22;20469;55.638;37.670;2022-12-18T05:33:41;-4.50;99.90
34201;DHT22;20469;55.638;37.670;2022-12-18T05:36:09;-4.40;99.90
34201;DHT22;20469;55.638;37.670;2022-12-18T05:38:37;-4.40;99.90
34201;DHT22;20469;55.638;37.670;2022-12-18T05:41:06;-4.40;99.90
34201;DHT22;20469;55.638;37.670;2022-12-18T05:43:35;-4.40;99.90
34201;DHT22;20469;55.638;37.670;2022-12-18T05:46:09;-4.40;99.90
34201;DHT22;20469;55.638;37.670;2022-12-18T05:48:37;-4.40;99.90
34201;DHT22;20469;55.638;37.670;2022-12-18T05:51:12;-4.50;99.90
34201;DHT22;20469;55.638;37.670;2022-12-18T05:53:40;-4.40;99.90
34201;DHT22;20469;55.638;37.670;2022-12-18T05:56:13;-4.50;99.90
34201;DHT22;20469;55.638;37.670;2022-12-18T05:58:44;-4.50;99.90
34201;DHT22;20469;55.638;37.670;2022-12-18T06:01:15;-4.50;99.90
34201;DHT22;20469;55.638;37.670;2022-12-18T06:03:43;-4.60;99.90
34201;DHT22;20469;55.638;37.670;2022-12-18T06:06:27;-4.50;99.90
34201;DHT22;20469;55.638;37.670;2022-12-18T06:08:55;-4.50;99.90
34201;DHT22;20469;55.638;37.670;2022-12-18T06:11:25;-4.40;99.90
34201;DHT22;20469;55.638;37.670;2022-12-18T06:13:53;-4.40;99.90
34201;DHT22;20469;55.638;37.670;2022-12-18T06:16:25;-4.40;99.90
34201;DHT22;20469;55.638;37.670;2022-12-18T06:18:55;-4.40;99.90
34201;DHT22;20469;55.638;37.670;2022-12-18T06:21:22;-4.60;99.90
34201;DHT22;20469;55.638;37.670;2022-12-18T06:23:50;-4.60;99.90
34201;DHT22;20469;55.638;37.670;2022-12-18T06:26:17;-4.60;99.90
34201;DHT22;20469;55.638;37.670;2022-12-18T06:29:10;-4.50;99.90
34201;DHT22;20469;55.638;37.670;2022-12-18T06:34:05;-4.60;99.90
34201;DHT22;20469;55.638;37.670;2022-12-18T06:36:32;-4.60;99.90
34201;DHT22;20469;55.638;37.670;2022-12-18T06:38:59;-4.60;99.90
34201;DHT22;20469;55.638;37.670;2022-12-18T06:41:27;-4.50;99.90
34201;DHT22;20469;55.638;37.670;2022-12-18T06:43:54;-3.20;99.90
34201;DHT22;20469;55.638;37.670;2022-12-18T06:46:25;-4.50;99.90
34201;DHT22;20469;55.638;37.670;2022-12-18T06:48:52;-4.50;99.90
34201;DHT22;20469;55.638;37.670;2022-12-18T06:51:23;-5.30;99.90
34201;DHT22;20469;55.638;37.670;2022-12-18T06:53:50;-4.50;99.90
34201;DHT22;20469;55.638;37.670;2022-12-18T06:56:17;-4.50;99.90
34201;DHT22;20469;55.638;37.670;2022-12-18T06:58:44;-4.40;99.90
34201;DHT22;20469;55.638;37.670;2022-12-18T07:01:12;-4.50;99.90
34201;DHT22;20469;55.638;37.670;2022-12-18T07:03:41;-4.40;99.90
34201;DHT22;20469;55.638;37.670;2022-12-18T07:06:18;-4.40;99.90
34201;DHT22;20469;55.638;37.670;2022-12-18T07:08:46;-4.50;99.90
34201;DHT22;20469;55.638;37.670;2022-12-18T07:11:13;-4.50;99.90
34201;DHT22;20469;55.638;37.670;2022-12-18T07:13:42;-4.50;99.90
34201;DHT22;20469;55.638;37.670;2022-12-18T07:16:17;-4.50;99.90
34201;DHT22;20469;55.638;37.670;2022-12-18T07:18:51;-4.30;99.90
34201;DHT22;20469;55.638;37.670;2022-12-18T07:21:21;-4.40;99.90
34201;DHT22;20469;55.638;37.670;2022-12-18T07:24:07;-4.40;99.90
34201;DHT22;20469;55.638;37.670;2022-12-18T07:26:34;-4.40;99.90
34201;DHT22;20469;55.638;37.670;2022-12-18T07:29:01;-4.10;99.90
34201;DHT22;20469;55.638;37.670;2022-12-18T07:31:29;-4.30;99.90
34201;DHT22;20469;55.638;37.670;2022-12-18T07:33:56;-4.50;99.90
34201;DHT22;20469;55.638;37.670;2022-12-18T07:36:24;-4.60;99.90
34201;DHT22;20469;55.638;37.670;2022-12-18T07:38:51;-4.30;99.90
34201;DHT22;20469;55.638;37.670;2022-12-18T07:41:20;-4.50;99.90
34201;DHT22;20469;55.638;37.670;2022-12-18T07:43:48;-4.40;99.90
34201;DHT22;20469;55.638;37.670;2022-12-18T07:46:16;-4.30;99.90
34201;DHT22;20469;55.638;37.670;2022-12-18T07:48:43;-4.30;99.90
34201;DHT22;20469;55.638;37.670;2022-12-18T07:51:16;-4.30;99.90
34201;DHT22;20469;55.638;37.670;2022-12-18T07:53:44;-4.20;99.90
34201;DHT22;20469;55.638;37.670;2022-12-18T07:56:17;-4.30;99.90
34201;DHT22;20469;55.638;37.670;2022-12-18T07:58:55;-4.30;99.90
34201;DHT22;20469;55.638;37.670;2022-12-18T08:01:23;-4.30;99.90
34201;DHT22;20469;55.638;37.670;2022-12-18T08:03:50;-4.40;99.90
34201;DHT22;20469;55.638;37.670;2022-12-18T08:06:19;-4.10;99.90
34201;DHT22;20469;55.638;37.670;2022-12-18T08:08:53;-4.20;99.90
34201;DHT22;20469;55.638;37.670;2022-12-18T08:11:22;-4.00;99.90
34201;DHT22;20469;55.638;37.670;2022-12-18T08:13:49;-4.30;99.90
34201;DHT22;20469;55.638;37.670;2022-12-18T08:16:17;-4.30;99.90
34201;DHT22;20469;55.638;37.670;2022-12-18T08:18:45;-4.30;99.90
34201;DHT22;20469;55.638;37.670;2022-12-18T08:21:14;-4.20;99.90
34201;DHT22;20469;55.638;37.670;2022-12-18T08:23:42;-4.30;99.90
34201;DHT22;20469;55.638;37.670;2022-12-18T08:26:13;-4.20;99.90
34201;DHT22;20469;55.638;37.670;2022-12-18T08:28:42;-4.20;99.90
34201;DHT22;20469;55.638;37.670;2022-12-18T08:31:09;-4.20;99.90
34201;DHT22;20469;55.638;37.670;2022-12-18T08:33:38;-4.20;99.90
34201;DHT22;20469;55.638;37.670;2022-12-18T08:36:08;-5.30;99.90
34201;DHT22;20469;55.638;37.670;2022-12-18T08:38:36;-4.10;99.90
34201;DHT22;20469;55.638;37.670;2022-12-18T08:41:06;-4.20;99.90
34201;DHT22;20469;55.638;37.670;2022-12-18T08:43:34;-4.10;99.90
34201;DHT22;20469;55.638;37.670;2022-12-18T08:46:21;-4.20;99.90
34201;DHT22;20469;55.638;37.670;2022-12-18T08:48:51;-4.10;99.90
34201;DHT22;20469;55.638;37.670;2022-12-18T08:51:19;-4.00;99.90
34201;DHT22;20469;55.638;37.670;2022-12-18T08:53:47;-3.90;99.90
34201;DHT22;20469;55.638;37.670;2022-12-18T08:56:14;-3.90;99.90
34201;DHT22;20469;55.638;37.670;2022-12-18T08:58:42;-3.80;99.90
34201;DHT22;20469;55.638;37.670;2022-12-18T09:01:11;-3.90;99.90
34201;DHT22;20469;55.638;37.670;2022-12-18T09:03:39;-3.90;99.90
34201;DHT22;20469;55.638;37.670;2022-12-18T09:06:07;-4.00;99.90
34201;DHT22;20469;55.638;37.670;2022-12-18T09:08:35;-4.00;99.90
34201;DHT22;20469;55.638;37.670;2022-12-18T09:11:04;-3.90;99.90
34201;DHT22;20469;55.638;37.670;2022-12-18T09:13:31;-2.30;99.90
34201;DHT22;20469;55.638;37.670;2022-12-18T09:15:58;-3.60;99.90
34201;DHT22;20469;55.638;37.670;2022-12-18T09:18:25;-3.60;99.90
34201;DHT22;20469;55.638;37.670;2022-12-18T09:20:53;-3.80;99.90
34201;DHT22;20469;55.638;37.670;2022-12-18T09:23:21;-3.80;99.90
34201;DHT22;20469;55.638;37.670;2022-12-18T09:25:48;-3.80;99.90
34201;DHT22;20469;55.638;37.670;2022-12-18T09:28:17;-3.70;99.90
34201;DHT22;20469;55.638;37.670;2022-12-18T09:30:47;-3.70;99.90
34201;DHT22;20469;55.638;37.670;2022-12-18T09:33:15;-3.70;99.90
34201;DHT22;20469;55.638;37.670;2022-12-18T09:35:44;-3.70;99.90
34201;DHT22;20469;55.638;37.670;2022-12-18T09:38:13;-3.80;99.90
34201;DHT22;20469;55.638;37.670;2022-12-18T09:40:49;-3.70;99.90
34201;DHT22;20469;55.638;37.670;2022-12-18T09:43:47;-3.60;99.90
34201;DHT22;20469;55.638;37.670;2022-12-18T09:46:19;-3.60;99.90
34201;DHT22;20469;55.638;37.670;2022-12-18T09:48:50;-3.60;99.90
34201;DHT22;20469;55.638;37.670;2022-12-18T09:51:26;-3.60;99.90
34201;DHT22;20469;55.638;37.670;2022-12-18T09:53:58;-3.50;99.90
34201;DHT22;20469;55.638;37.670;2022-12-18T09:56:31;-3.50;99.90
34201;DHT22;20469;55.638;37.670;2022-12-18T09:59:00;-3.60;99.90
34201;DHT22;20469;55.638;37.670;2022-12-18T10:01:29;-3.50;99.90
34201;DHT22;20469;55.638;37.670;2022-12-18T10:04:09;-3.60;99.90
34201;DHT22;20469;55.638;37.670;2022-12-18T10:06:54;-3.60;99.90
34201;DHT22;20469;55.638;37.670;2022-12-18T10:12:42;-3.60;99.90
34201;DHT22;20469;55.638;37.670;2022-12-18T10:17:55;-3.30;99.90
34201;DHT22;20469;55.638;37.670;2022-12-18T10:20:36;-3.50;99.90
34201;DHT22;20469;55.638;37.670;2022-12-18T10:25:54;-3.50;99.90
34201;DHT22;20469;55.638;37.670;2022-12-18T10:28:23;-3.50;99.90
34201;DHT22;20469;55.638;37.670;2022-12-18T10:30:51;-3.50;99.90
34201;DHT22;20469;55.638;37.670;2022-12-18T10:33:22;-3.70;99.90
34201;DHT22;20469;55.638;37.670;2022-12-18T10:35:53;-3.60;99.90
34201;DHT22;20469;55.638;37.670;2022-12-18T10:38:26;-3.60;99.90
34201;DHT22;20469;55.638;37.670;2022-12-18T10:43:26;-3.70;99.90
34201;DHT22;20469;55.638;37.670;2022-12-18T10:51:26;-3.70;99.90
34201;DHT22;20469;55.638;37.670;2022-12-18T10:54:12;-3.80;99.90
34201;DHT22;20469;55.638;37.670;2022-12-18T10:56:41;-3.80;99.90
34201;DHT22;20469;55.638;37.670;2022-12-18T10:59:12;-3.70;99.90
34201;DHT22;20469;55.638;37.670;2022-12-18T11:01:49;-3.70;99.90
34201;DHT22;20469;55.638;37.670;2022-12-18T11:04:28;-3.70;99.90
34201;DHT22;20469;55.638;37.670;2022-12-18T11:07:04;-3.80;99.90
34201;DHT22;20469;55.638;37.670;2022-12-18T11:09:38;-3.90;99.90
34201;DHT22;20469;55.638;37.670;2022-12-18T11:12:19;-4.00;99.90
34201;DHT22;20469;55.638;37.670;2022-12-18T11:14:49;-3.90;99.90
34201;DHT22;20469;55.638;37.670;2022-12-18T11:17:31;-3.70;99.90
34201;DHT22;20469;55.638;37.670;2022-12-18T11:20:04;-3.90;99.90
34201;DHT22;20469;55.638;37.670;2022-12-18T11:22:35;-4.00;99.90
34201;DHT22;20469;55.638;37.670;2022-12-18T11:25:18;-4.00;99.90
34201;DHT22;20469;55.638;37.670;2022-12-18T11:28:05;-3.90;99.90
34201;DHT22;20469;55.638;37.670;2022-12-18T11:30:35;-3.80;99.90
34201;DHT22;20469;55.638;37.670;2022-12-18T11:33:15;-3.90;99.90
34201;DHT22;20469;55.638;37.670;2022-12-18T11:35:49;-3.80;99.90
34201;DHT22;20469;55.638;37.670;2022-12-18T11:40:59;-4.00;99.90
34201;DHT22;20469;55.638;37.670;2022-12-18T11:43:45;-3.20;99.90
34201;DHT22;20469;55.638;37.670;2022-12-18T11:46:23;-4.00;99.90
34201;DHT22;20469;55.638;37.670;2022-12-18T11:49:35;-4.20;99.90
34201;DHT22;20469;55.638;37.670;2022-12-18T11:52:34;-4.00;99.90
34201;DHT22;20469;55.638;37.670;2022-12-18T11:58:31;-3.90;99.90
34201;DHT22;20469;55.638;37.670;2022-12-18T12:09:24;-3.80;99.90
34201;DHT22;20469;55.638;37.670;2022-12-18T12:17:37;-3.90;99.90
34201;DHT22;20469;55.638;37.670;2022-12-18T12:20:10;-3.90;99.90
34201;DHT22;20469;55.638;37.670;2022-12-18T12:31:07;-4.10;99.90
34201;DHT22;20469;55.638;37.670;2022-12-18T12:39:18;-4.00;99.90
34201;DHT22;20469;55.638;37.670;2022-12-18T12:41:47;-4.00;99.90
34201;DHT22;20469;55.638;37.670;2022-12-18T12:44:47;-4.00;99.90
34201;DHT22;20469;55.638;37.670;2022-12-18T12:47:35;-4.00;99.90
34201;DHT22;20469;55.638;37.670;2022-12-18T12:50:06;-4.00;99.90
34201;DHT22;20469;55.638;37.670;2022-12-18T12:52:48;-5.30;99.90
34201;DHT22;20469;55.638;37.670;2022-12-18T12:55:28;-3.90;99.90
34201;DHT22;20469;55.638;37.670;2022-12-18T13:00:59;-3.80;99.90
34201;DHT22;20469;55.638;37.670;2022-12-18T13:09:10;-4.00;99.90
34201;DHT22;20469;55.638;37.670;2022-12-18T13:14:29;-4.00;99.90
34201;DHT22;20469;55.638;37.670;2022-12-18T13:17:27;-3.90;99.90
34201;DHT22;20469;55.638;37.670;2022-12-18T13:22:39;-4.00;99.90
34201;DHT22;20469;55.638;37.670;2022-12-18T13:25:36;-3.90;99.90
34201;DHT22;20469;55.638;37.670;2022-12-18T13:28:14;-3.90;99.90
34201;DHT22;20469;55.638;37.670;2022-12-18T13:30:53;-3.90;99.90
34201;DHT22;20469;55.638;37.670;2022-12-18T13:39:21;-3.90;99.90
34201;DHT22;20469;55.638;37.670;2022-12-18T13:47:32;-3.90;99.90
34201;DHT22;20469;55.638;37.670;2022-12-18T13:50:17;-3.90;99.90
34201;DHT22;20469;55.638;37.670;2022-12-18T13:52:48;-3.90;99.90
34201;DHT22;20469;55.638;37.670;2022-12-18T13:55:18;-3.80;99.90
34201;DHT22;20469;55.638;37.670;2022-12-18T13:57:47;-3.90;99.90
34201;DHT22;20469;55.638;37.670;2022-12-18T14:00:28;-3.90;99.90
34201;DHT22;20469;55.638;37.670;2022-12-18T14:02:57;-3.90;99.90
34201;DHT22;20469;55.638;37.670;2022-12-18T14:07:55;-3.90;99.90
34201;DHT22;20469;55.638;37.670;2022-12-18T14:10:22;-3.80;99.90
34201;DHT22;20469;55.638;37.670;2022-12-18T14:13:24;-3.90;99.90
34201;DHT22;20469;55.638;37.670;2022-12-18T14:15:53;-3.80;99.90
34201;DHT22;20469;55.638;37.670;2022-12-18T14:18:53;-3.80;99.90
34201;DHT22;20469;55.638;37.670;2022-12-18T14:21:32;-3.70;99.90
34201;DHT22;20469;55.638;37.670;2022-12-18T14:24:16;-3.60;99.90
34201;DHT22;20469;55.638;37.670;2022-12-18T14:26:47;-3.80;99.90
34201;DHT22;20469;55.638;37.670;2022-12-18T14:32:14;-3.70;99.90
34201;DHT22;20469;55.638;37.670;2022-12-18T14:34:46;-3.60;99.90
34201;DHT22;20469;55.638;37.670;2022-12-18T14:37:16;-3.70;99.90
34201;DHT22;20469;55.638;37.670;2022-12-18T14:39:54;-3.80;99.90
34201;DHT22;20469;55.638;37.670;2022-12-18T14:42:21;-3.80;99.90
34201;DHT22;20469;55.638;37.670;2022-12-18T14:44:49;-3.80;99.90
34201;DHT22;20469;55.638;37.670;2022-12-18T14:47:36;-3.80;99.90
34201;DHT22;20469;55.638;37.670;2022-12-18T14:50:03;-3.70;99.90
34201;DHT22;20469;55.638;37.670;2022-12-18T14:52:39;-3.70;99.90
34201;DHT22;20469;55.638;37.670;2022-12-18T14:55:15;-3.70;99.90
34201;DHT22;20469;55.638;37.670;2022-12-18T14:57:42;-3.70;99.90
34201;DHT22;20469;55.638;37.670;2022-12-18T15:00:17;-3.60;99.90
34201;DHT22;20469;55.638;37.670;2022-12-18T15:02:56;-3.70;99.90
34201;DHT22;20469;55.638;37.670;2022-12-18T15:05:30;-3.80;99.90
34201;DHT22;20469;55.638;37.670;2022-12-18T15:07:59;-3.80;99.90
34201;DHT22;20469;55.638;37.670;2022-12-18T15:10:32;-3.80;99.90
34201;DHT22;20469;55.638;37.670;2022-12-18T15:20:56;-3.90;99.90
34201;DHT22;20469;55.638;37.670;2022-12-18T15:23:52;-4.00;99.90
34201;DHT22;20469;55.638;37.670;2022-12-18T15:26:21;-4.00;99.90
34201;DHT22;20469;55.638;37.670;2022-12-18T15:28:53;-3.90;99.90
34201;DHT22;20469;55.638;37.670;2022-12-18T15:31:23;-4.00;99.90
34201;DHT22;20469;55.638;37.670;2022-12-18T15:36:22;-3.90;99.90
34201;DHT22;20469;55.638;37.670;2022-12-18T15:38:54;-4.00;99.90
34201;DHT22;20469;55.638;37.670;2022-12-18T15:41:32;-4.00;99.90
34201;DHT22;20469;55.638;37.670;2022-12-18T15:44:03;-4.10;99.90
34201;DHT22;20469;55.638;37.670;2022-12-18T15:46:30;-4.20;99.90
34201;DHT22;20469;55.638;37.670;2022-12-18T15:48:58;-4.20;99.90
34201;DHT22;20469;55.638;37.670;2022-12-18T15:51:34;-4.20;99.90
34201;DHT22;20469;55.638;37.670;2022-12-18T15:54:04;-4.20;99.90
34201;DHT22;20469;55.638;37.670;2022-12-18T15:56:32;-4.20;99.90
34201;DHT22;20469;55.638;37.670;2022-12-18T15:59:20;-4.10;99.90
34201;DHT22;20469;55.638;37.670;2022-12-18T16:01:49;-4.20;99.90
34201;DHT22;20469;55.638;37.670;2022-12-18T16:04:19;-4.20;99.90
34201;DHT22;20469;55.638;37.670;2022-12-18T16:06:50;-4.30;99.90
34201;DHT22;20469;55.638;37.670;2022-12-18T16:09:38;-4.10;99.90
34201;DHT22;20469;55.638;37.670;2022-12-18T16:12:10;-4.20;99.90
34201;DHT22;20469;55.638;37.670;2022-12-18T16:14:41;-4.10;99.90
34201;DHT22;20469;55.638;37.670;2022-12-18T16:17:10;-4.30;99.90
34201;DHT22;20469;55.638;37.670;2022-12-18T16:19:38;-4.10;99.90
34201;DHT22;20469;55.638;37.670;2022-12-18T16:22:05;-4.20;99.90
34201;DHT22;20469;55.638;37.670;2022-12-18T16:24:36;-4.30;99.90
34201;DHT22;20469;55.638;37.670;2022-12-18T16:27:04;-4.30;99.90
34201;DHT22;20469;55.638;37.670;2022-12-18T16:29:31;-4.40;99.90
34201;DHT22;20469;55.638;37.670;2022-12-18T16:32:00;-4.50;99.90
34201;DHT22;20469;55.638;37.670;2022-12-18T16:34:29;-4.50;99.90
34201;DHT22;20469;55.638;37.670;2022-12-18T16:37:04;-4.40;99.90
34201;DHT22;20469;55.638;37.670;2022-12-18T16:39:36;-4.60;99.90
34201;DHT22;20469;55.638;37.670;2022-12-18T16:42:06;-4.60;99.90
34201;DHT22;20469;55.638;37.670;2022-12-18T16:44:34;-4.40;99.90
34201;DHT22;20469;55.638;37.670;2022-12-18T16:47:02;-4.50;99.90
34201;DHT22;20469;55.638;37.670;2022-12-18T16:49:29;-4.70;99.90
34201;DHT22;20469;55.638;37.670;2022-12-18T16:51:58;-4.80;99.90
34201;DHT22;20469;55.638;37.670;2022-12-18T16:54:29;-4.60;99.90
34201;DHT22;20469;55.638;37.670;2022-12-18T16:56:56;-4.40;99.90
34201;DHT22;20469;55.638;37.670;2022-12-18T16:59:24;-4.50;99.90
34201;DHT22;20469;55.638;37.670;2022-12-18T17:01:53;-4.70;99.90
34201;DHT22;20469;55.638;37.670;2022-12-18T17:04:21;-4.60;99.90
34201;DHT22;20469;55.638;37.670;2022-12-18T17:06:49;-4.70;99.90
34201;DHT22;20469;55.638;37.670;2022-12-18T17:09:18;-4.80;99.90
34201;DHT22;20469;55.638;37.670;2022-12-18T17:11:52;-4.90;99.90
34201;DHT22;20469;55.638;37.670;2022-12-18T17:14:22;-5.00;99.90
34201;DHT22;20469;55.638;37.670;2022-12-18T17:16:50;-5.00;99.90
34201;DHT22;20469;55.638;37.670;2022-12-18T17:19:37;-5.10;99.90
34201;DHT22;20469;55.638;37.670;2022-12-18T17:22:05;-5.20;99.90
34201;DHT22;20469;55.638;37.670;2022-12-18T17:24:34;-5.40;99.90
34201;DHT22;20469;55.638;37.670;2022-12-18T17:27:02;-5.40;99.90
34201;DHT22;20469;55.638;37.670;2022-12-18T17:29:30;-5.50;99.90
34201;DHT22;20469;55.638;37.670;2022-12-18T17:31:57;-5.60;99.90
34201;DHT22;20469;55.638;37.670;2022-12-18T17:34:26;-5.60;99.90
34201;DHT22;20469;55.638;37.670;2022-12-18T17:36:54;-5.60;99.90
34201;DHT22;20469;55.638;37.670;2022-12-18T17:39:22;-5.60;99.90
34201;DHT22;20469;55.638;37.670;2022-12-18T17:41:49;-5.70;99.90
34201;DHT22;20469;55.638;37.670;2022-12-18T17:44:17;-5.90;99.90
34201;DHT22;20469;55.638;37.670;2022-12-18T17:46:44;-5.90;99.90
34201;DHT22;20469;55.638;37.670;2022-12-18T17:49:13;-6.00;99.90
34201;DHT22;20469;55.638;37.670;2022-12-18T17:51:40;-6.10;99.90
34201;DHT22;20469;55.638;37.670;2022-12-18T17:54:11;-6.10;99.90